createdAt,value
2017-01-24T00:00:48.504Z,1006.29
2017-01-24T00:01:58.866Z,1006.25
2017-01-24T00:03:08.414Z,1006.23
2017-01-24T00:04:19.178Z,1006.25
2017-01-24T00:05:29.157Z,1006.26
2017-01-24T00:06:39.097Z,1006.27
2017-01-24T00:07:49.455Z,1006.25
2017-01-24T00:08:59.401Z,1006.22
2017-01-24T00:10:10.140Z,1006.21
2017-01-24T00:11:20.485Z,1006.28
2017-01-24T00:12:30.851Z,1006.24
2017-01-24T00:13:41.580Z,1006.25
2017-01-24T00:14:51.927Z,1006.21
2017-01-24T00:16:02.278Z,1006.24
2017-01-24T00:17:11.824Z,1006.22
2017-01-24T00:18:22.168Z,1006.2
2017-01-24T00:19:32.106Z,1006.23
2017-01-24T00:20:42.858Z,1006.23
2017-01-24T00:21:53.198Z,1006.22
2017-01-24T00:23:03.137Z,1006.21
2017-01-24T00:24:13.498Z,1006.26
2017-01-24T00:25:23.838Z,1006.24
2017-01-24T00:26:34.188Z,1006.23
2017-01-24T00:27:44.936Z,1006.2
2017-01-24T00:28:55.308Z,1006.22
2017-01-24T00:30:05.645Z,1006.2
2017-01-24T00:31:15.986Z,1006.23
2017-01-24T00:32:26.730Z,1006.22
2017-01-24T00:33:37.102Z,1006.22
2017-01-24T00:34:47.047Z,1006.24
2017-01-24T00:35:57.398Z,1006.24
2017-01-24T00:37:08.152Z,1006.24
2017-01-24T00:38:18.894Z,1006.25
2017-01-24T00:39:29.613Z,1006.21
2017-01-24T00:40:40.362Z,1006.22
2017-01-24T00:41:51.107Z,1006.2
2017-01-24T00:43:01.855Z,1006.2
2017-01-24T00:44:12.610Z,1006.21
2017-01-24T00:45:22.944Z,1006.23
2017-01-24T00:46:33.275Z,1006.24
2017-01-24T00:47:43.621Z,1006.17
2017-01-24T00:48:54.370Z,1006.22
2017-01-24T00:50:05.106Z,1006.23
2017-01-24T00:51:15.446Z,1006.24
2017-01-24T00:52:25.417Z,1006.27
2017-01-24T00:53:35.764Z,1006.24
2017-01-24T00:54:46.112Z,1006.26
2017-01-24T00:55:56.453Z,1006.3
2017-01-24T00:57:07.193Z,1006.32
2017-01-24T00:58:16.338Z,1006.33
2017-01-24T00:59:26.282Z,1006.36
2017-01-24T01:00:36.621Z,1006.33
2017-01-24T01:01:46.976Z,1006.33
2017-01-24T01:02:57.728Z,1006.31
2017-01-24T01:04:08.456Z,1006.32
2017-01-24T01:05:18.401Z,1006.37
2017-01-24T01:06:27.553Z,1006.32
2017-01-24T01:07:38.284Z,1006.32
2017-01-24T01:08:49.074Z,1006.27
2017-01-24T01:09:59.038Z,1006.36
2017-01-24T01:11:09.780Z,1006.3
2017-01-24T01:12:20.124Z,1006.33
2017-01-24T01:13:30.879Z,1006.34
2017-01-24T01:14:41.661Z,1006.3
2017-01-24T01:15:52.011Z,1006.31
2017-01-24T01:17:02.384Z,1006.34
2017-01-24T01:18:13.121Z,1006.31
2017-01-24T01:19:23.467Z,1006.31
2017-01-24T01:20:33.414Z,1006.3
2017-01-24T01:21:43.754Z,1006.33
2017-01-24T01:22:54.491Z,1006.29
2017-01-24T01:24:05.223Z,1006.32
2017-01-24T01:25:15.159Z,1006.35
2017-01-24T01:26:25.093Z,1006.34
2017-01-24T01:27:35.834Z,1006.32
2017-01-24T01:28:46.176Z,1006.26
2017-01-24T01:29:56.111Z,1006.35
2017-01-24T01:31:06.068Z,1006.31
2017-01-24T01:32:16.782Z,1006.3
2017-01-24T01:33:26.723Z,1006.33
2017-01-24T01:34:37.074Z,1006.32
2017-01-24T01:35:47.825Z,1006.32
2017-01-24T01:36:58.174Z,1006.33
2017-01-24T01:38:07.728Z,1006.32
2017-01-24T01:39:17.661Z,1006.35
2017-01-24T01:40:28.013Z,1006.28
2017-01-24T01:41:38.772Z,1006.33
2017-01-24T01:42:49.511Z,1006.37
2017-01-24T01:43:59.852Z,1006.38
2017-01-24T01:45:10.605Z,1006.4
2017-01-24T01:46:21.367Z,1006.44
2017-01-24T01:47:32.097Z,1006.42
2017-01-24T01:48:42.446Z,1006.43
2017-01-24T01:49:52.790Z,1006.36
2017-01-24T01:51:03.555Z,1006.43
2017-01-24T01:52:14.311Z,1006.37
2017-01-24T01:53:25.039Z,1006.41
2017-01-24T01:54:35.799Z,1006.45
2017-01-24T01:55:46.159Z,1006.45
2017-01-24T01:56:56.901Z,1006.42
2017-01-24T01:58:07.231Z,1006.41
2017-01-24T01:59:17.573Z,1006.43
2017-01-24T02:00:27.131Z,1006.45
2017-01-24T02:01:37.887Z,1006.43
2017-01-24T02:02:48.216Z,1006.4
2017-01-24T02:03:58.552Z,1006.43
2017-01-24T02:05:09.277Z,1006.4
2017-01-24T02:06:18.831Z,1006.44
2017-01-24T02:07:29.567Z,1006.41
2017-01-24T02:08:39.897Z,1006.44
2017-01-24T02:09:49.873Z,1006.43
2017-01-24T02:10:59.436Z,1006.44
2017-01-24T02:12:10.168Z,1006.44
2017-01-24T02:13:20.893Z,1006.49
2017-01-24T02:14:31.232Z,1006.47
2017-01-24T02:15:41.589Z,1006.44
2017-01-24T02:16:52.334Z,1006.46
2017-01-24T02:18:02.680Z,1006.44
2017-01-24T02:19:12.627Z,1006.48
2017-01-24T02:20:22.561Z,1006.49
2017-01-24T02:21:33.305Z,1006.51
2017-01-24T02:22:44.036Z,1006.49
2017-01-24T02:23:54.773Z,1006.51
2017-01-24T02:25:05.114Z,1006.5
2017-01-24T02:26:15.872Z,1006.49
2017-01-24T02:27:26.610Z,1006.45
2017-01-24T02:28:36.952Z,1006.45
2017-01-24T02:29:47.287Z,1006.43
2017-01-24T02:30:56.443Z,1006.42
2017-01-24T02:32:07.185Z,1006.44
2017-01-24T02:33:16.727Z,1006.41
2017-01-24T02:34:26.285Z,1006.38
2017-01-24T02:35:36.622Z,1006.41
2017-01-24T02:36:47.363Z,1006.42
2017-01-24T02:37:58.104Z,1006.37
2017-01-24T02:39:08.845Z,1006.35
2017-01-24T02:40:19.574Z,1006.31
2017-01-24T02:41:29.903Z,1006.34
2017-01-24T02:42:39.855Z,1006.3
2017-01-24T02:43:50.597Z,1006.34
2017-01-24T02:45:00.953Z,1006.33
2017-01-24T02:46:11.710Z,1006.3
2017-01-24T02:47:22.438Z,1006.35
2017-01-24T02:48:32.775Z,1006.29
2017-01-24T02:49:43.111Z,1006.31
2017-01-24T02:50:53.904Z,1006.3
2017-01-24T02:52:04.666Z,1006.29
2017-01-24T02:53:14.620Z,1006.29
2017-01-24T02:54:24.963Z,1006.24
2017-01-24T02:55:35.700Z,1006.25
2017-01-24T02:56:46.037Z,1006.24
2017-01-24T02:57:56.367Z,1006.23
2017-01-24T02:59:07.137Z,1006.26
2017-01-24T03:00:17.875Z,1006.26
2017-01-24T03:01:28.215Z,1006.26
2017-01-24T03:32:49.639Z,1006.25
2017-01-24T03:33:59.958Z,1006.18
2017-01-24T03:35:10.664Z,1006.23
2017-01-24T03:36:21.400Z,1006.2
2017-01-24T03:37:31.727Z,1006.22
2017-01-24T03:38:42.461Z,1006.22
2017-01-24T03:39:53.206Z,1006.22
2017-01-24T03:41:03.161Z,1006.18
2017-01-24T03:42:13.729Z,1006.18
2017-01-24T03:43:24.465Z,1006.21
2017-01-24T03:44:34.795Z,1006.17
2017-01-24T03:45:45.549Z,1006.19
2017-01-24T03:46:55.506Z,1006.25
2017-01-24T03:48:05.848Z,1006.28
2017-01-24T03:49:16.572Z,1006.26
2017-01-24T03:50:27.307Z,1006.23
2017-01-24T03:51:37.644Z,1006.25
2017-01-24T03:52:48.027Z,1006.28
2017-01-24T03:53:57.973Z,1006.27
2017-01-24T03:55:07.909Z,1006.31
2017-01-24T03:56:18.660Z,1006.32
2017-01-24T03:57:29.390Z,1006.33
2017-01-24T03:58:38.566Z,1006.32
2017-01-24T03:59:49.289Z,1006.3
2017-01-24T04:01:00.018Z,1006.34
2017-01-24T04:02:10.349Z,1006.31
2017-01-24T04:03:20.687Z,1006.3
2017-01-24T04:04:31.060Z,1006.3
2017-01-24T04:05:41.796Z,1006.27
2017-01-24T04:06:52.131Z,1006.29
2017-01-24T04:08:02.476Z,1006.27
2017-01-24T04:09:13.221Z,1006.26
2017-01-24T04:10:23.577Z,1006.27
2017-01-24T04:11:33.916Z,1006.28
2017-01-24T04:12:44.256Z,1006.3
2017-01-24T04:13:54.588Z,1006.29
2017-01-24T04:15:05.333Z,1006.28
2017-01-24T04:16:15.304Z,1006.32
2017-01-24T04:17:25.651Z,1006.26
2017-01-24T04:18:36.005Z,1006.24
2017-01-24T04:19:46.357Z,1006.3
2017-01-24T04:20:57.088Z,1006.31
2017-01-24T04:22:07.423Z,1006.3
2017-01-24T04:23:18.151Z,1006.27
2017-01-24T04:24:28.496Z,1006.25
2017-01-24T04:25:39.260Z,1006.26
2017-01-24T04:26:50.000Z,1006.27
2017-01-24T04:28:00.342Z,1006.26
2017-01-24T04:29:10.690Z,1006.27
2017-01-24T04:30:21.427Z,1006.25
2017-01-24T04:31:31.774Z,1006.24
2017-01-24T04:32:42.535Z,1006.23
2017-01-24T04:33:53.280Z,1006.25
2017-01-24T04:35:03.618Z,1006.24
2017-01-24T04:36:13.980Z,1006.27
2017-01-24T04:37:24.721Z,1006.24
2017-01-24T04:38:35.072Z,1006.29
2017-01-24T04:39:45.425Z,1006.31
2017-01-24T04:40:55.798Z,1006.33
2017-01-24T04:42:06.145Z,1006.36
2017-01-24T04:43:16.881Z,1006.33
2017-01-24T04:44:27.657Z,1006.39
2017-01-24T04:45:38.393Z,1006.36
2017-01-24T04:46:48.731Z,1006.36
2017-01-24T04:47:58.675Z,1006.41
2017-01-24T04:49:08.608Z,1006.4
2017-01-24T04:50:19.340Z,1006.46
2017-01-24T04:51:30.068Z,1006.46
2017-01-24T04:52:40.405Z,1006.45
2017-01-24T04:53:50.745Z,1006.46
2017-01-24T04:55:01.102Z,1006.47
2017-01-24T04:56:11.835Z,1006.41
2017-01-24T04:57:22.572Z,1006.46
2017-01-24T04:58:33.314Z,1006.41
2017-01-24T04:59:44.034Z,1006.41
2017-01-24T05:00:54.751Z,1006.42
2017-01-24T05:02:05.093Z,1006.42
2017-01-24T05:03:15.039Z,1006.46
2017-01-24T05:04:25.373Z,1006.46
2017-01-24T05:05:35.704Z,1006.49
2017-01-24T05:06:46.051Z,1006.49
2017-01-24T05:07:56.402Z,1006.5
2017-01-24T05:09:07.148Z,1006.49
2017-01-24T05:10:17.895Z,1006.47
2017-01-24T05:11:28.645Z,1006.53
2017-01-24T05:12:38.987Z,1006.51
2017-01-24T05:13:49.337Z,1006.56
2017-01-24T05:14:59.673Z,1006.58
2017-01-24T05:16:09.648Z,1006.59
2017-01-24T05:17:20.001Z,1006.56
2017-01-24T05:18:30.349Z,1006.56
2017-01-24T05:19:40.285Z,1006.59
2017-01-24T05:20:50.635Z,1006.61
2017-01-24T05:22:00.973Z,1006.61
2017-01-24T05:23:11.303Z,1006.61
2017-01-24T05:24:21.651Z,1006.62
2017-01-24T05:25:31.990Z,1006.6
2017-01-24T05:26:42.346Z,1006.6
2017-01-24T05:27:53.071Z,1006.64
2017-01-24T05:29:03.018Z,1006.64
2017-01-24T05:30:12.970Z,1006.63
2017-01-24T05:31:23.303Z,1006.64
2017-01-24T05:32:33.644Z,1006.68
2017-01-24T05:33:44.405Z,1006.68
2017-01-24T05:34:55.133Z,1006.65
2017-01-24T05:36:05.474Z,1006.66
2017-01-24T05:37:15.420Z,1006.66
2017-01-24T05:38:26.187Z,1006.64
2017-01-24T05:39:36.543Z,1006.62
2017-01-24T05:40:46.872Z,1006.67
2017-01-24T05:41:57.607Z,1006.66
2017-01-24T05:43:08.338Z,1006.67
2017-01-24T05:44:18.282Z,1006.67
2017-01-24T05:45:28.233Z,1006.69
2017-01-24T05:46:38.995Z,1006.69
2017-01-24T05:47:49.734Z,1006.77
2017-01-24T05:48:59.683Z,1006.74
2017-01-24T05:50:10.040Z,1006.77
2017-01-24T05:51:20.385Z,1006.79
2017-01-24T05:52:30.734Z,1006.8
2017-01-24T05:53:41.110Z,1006.77
2017-01-24T05:54:51.889Z,1006.8
2017-01-24T05:56:02.640Z,1006.8
2017-01-24T05:57:13.405Z,1006.83
2017-01-24T05:58:23.750Z,1006.84
2017-01-24T05:59:33.708Z,1006.78
2017-01-24T06:00:44.440Z,1006.85
2017-01-24T06:01:54.386Z,1006.85
2017-01-24T06:03:04.714Z,1006.88
2017-01-24T06:04:15.046Z,1006.89
2017-01-24T06:05:25.437Z,1006.93
2017-01-24T06:06:36.156Z,1006.89
2017-01-24T06:07:46.495Z,1006.93
2017-01-24T06:08:57.213Z,1006.9
2017-01-24T06:10:07.958Z,1006.92
2017-01-24T06:11:18.302Z,1006.92
2017-01-24T06:12:29.047Z,1006.89
2017-01-24T06:13:39.784Z,1006.96
2017-01-24T06:14:50.126Z,1006.93
2017-01-24T06:16:00.469Z,1006.93
2017-01-24T06:17:10.814Z,1006.96
2017-01-24T06:18:21.172Z,1006.95
2017-01-24T06:19:30.763Z,1006.96
2017-01-24T06:20:41.140Z,1006.95
2017-01-24T06:21:51.502Z,1006.96
2017-01-24T06:23:01.837Z,1007
2017-01-24T06:24:12.181Z,1007.04
2017-01-24T06:25:22.908Z,1006.97
2017-01-24T06:26:33.638Z,1007.01
2017-01-24T06:27:43.987Z,1007.02
2017-01-24T06:28:54.732Z,1007.03
2017-01-24T06:30:05.087Z,1006.98
2017-01-24T06:31:15.025Z,1007.04
2017-01-24T06:32:25.782Z,1007.04
2017-01-24T06:33:35.343Z,1007.02
2017-01-24T06:34:45.670Z,1007.06
2017-01-24T06:35:55.637Z,1007.1
2017-01-24T06:37:05.988Z,1007.07
2017-01-24T06:38:16.332Z,1007.08
2017-01-24T06:39:27.082Z,1007.11
2017-01-24T06:40:37.810Z,1007.08
2017-01-24T06:41:47.765Z,1007.09
2017-01-24T06:42:58.505Z,1007.08
2017-01-24T06:44:08.884Z,1007.12
2017-01-24T06:45:19.226Z,1007.13
2017-01-24T06:46:29.572Z,1007.18
2017-01-24T06:47:40.309Z,1007.2
2017-01-24T06:48:51.037Z,1007.19
2017-01-24T06:50:00.983Z,1007.18
2017-01-24T06:51:11.789Z,1007.16
2017-01-24T06:52:22.540Z,1007.16
2017-01-24T06:53:33.264Z,1007.16
2017-01-24T06:54:43.999Z,1007.2
2017-01-24T06:55:54.347Z,1007.2
2017-01-24T06:57:04.292Z,1007.21
2017-01-24T06:58:14.645Z,1007.21
2017-01-24T06:59:25.005Z,1007.27
2017-01-24T07:00:34.988Z,1007.31
2017-01-24T07:01:45.319Z,1007.31
2017-01-24T07:02:55.672Z,1007.29
2017-01-24T07:04:06.442Z,1007.33
2017-01-24T07:05:17.180Z,1007.32
2017-01-24T07:06:27.556Z,1007.35
2017-01-24T07:07:37.903Z,1007.38
2017-01-24T07:08:48.634Z,1007.39
2017-01-24T07:09:58.588Z,1007.4
2017-01-24T07:11:09.319Z,1007.4
2017-01-24T07:12:20.065Z,1007.39
2017-01-24T07:13:29.620Z,1007.36
2017-01-24T07:14:40.359Z,1007.4
2017-01-24T07:15:50.711Z,1007.41
2017-01-24T07:17:00.672Z,1007.42
2017-01-24T07:18:11.408Z,1007.4
2017-01-24T07:19:22.157Z,1007.45
2017-01-24T07:20:32.512Z,1007.4
2017-01-24T07:21:42.878Z,1007.39
2017-01-24T07:22:53.232Z,1007.39
2017-01-24T07:24:03.999Z,1007.37
2017-01-24T07:25:13.945Z,1007.41
2017-01-24T07:26:24.680Z,1007.43
2017-01-24T07:27:35.459Z,1007.46
2017-01-24T07:28:45.419Z,1007.46
2017-01-24T07:29:55.381Z,1007.48
2017-01-24T07:31:06.352Z,1007.51
2017-01-24T07:32:17.093Z,1007.52
2017-01-24T07:33:27.457Z,1007.58
2017-01-24T07:34:37.801Z,1007.58
2017-01-24T07:35:48.546Z,1007.53
2017-01-24T07:36:58.881Z,1007.55
2017-01-24T07:38:09.644Z,1007.57
2017-01-24T07:39:19.999Z,1007.55
2017-01-24T07:40:30.330Z,1007.52
2017-01-24T07:41:41.058Z,1007.54
2017-01-24T07:42:51.414Z,1007.53
2017-01-24T07:44:01.770Z,1007.52
2017-01-24T07:45:11.718Z,1007.55
2017-01-24T07:46:22.072Z,1007.49
2017-01-24T07:47:32.806Z,1007.51
2017-01-24T07:48:43.175Z,1007.57
2017-01-24T07:49:53.538Z,1007.56
2017-01-24T07:51:03.905Z,1007.58
2017-01-24T07:52:13.851Z,1007.56
2017-01-24T07:53:24.190Z,1007.62
2017-01-24T07:54:34.930Z,1007.67
2017-01-24T07:55:45.272Z,1007.64
2017-01-24T07:56:55.620Z,1007.66
2017-01-24T07:58:05.977Z,1007.61
2017-01-24T07:59:16.716Z,1007.61
2017-01-24T08:00:26.660Z,1007.64
2017-01-24T08:01:37.016Z,1007.67
2017-01-24T08:02:46.958Z,1007.67
2017-01-24T08:03:57.689Z,1007.67
2017-01-24T08:05:08.432Z,1007.68
2017-01-24T08:06:17.987Z,1007.68
2017-01-24T08:07:27.937Z,1007.71
2017-01-24T08:08:38.286Z,1007.69
2017-01-24T08:09:48.637Z,1007.62
2017-01-24T08:10:58.978Z,1007.65
2017-01-24T08:12:09.313Z,1007.64
2017-01-24T08:13:20.079Z,1007.69
2017-01-24T08:14:30.816Z,1007.68
2017-01-24T08:15:41.546Z,1007.68
2017-01-24T08:16:52.285Z,1007.73
2017-01-24T08:18:03.030Z,1007.72
2017-01-24T08:19:13.768Z,1007.69
2017-01-24T08:20:24.100Z,1007.68
2017-01-24T08:21:34.826Z,1007.7
2017-01-24T08:22:45.556Z,1007.67
2017-01-24T08:23:56.303Z,1007.72
2017-01-24T08:25:06.240Z,1007.77
2017-01-24T08:26:16.961Z,1007.81
2017-01-24T08:27:27.302Z,1007.81
2017-01-24T08:28:38.041Z,1007.83
2017-01-24T08:29:48.392Z,1007.85
2017-01-24T08:30:59.119Z,1007.9
2017-01-24T08:32:09.875Z,1007.84
2017-01-24T08:33:20.638Z,1007.88
2017-01-24T08:34:30.988Z,1007.85
2017-01-24T08:35:41.728Z,1007.84
2017-01-24T08:36:52.066Z,1007.88
2017-01-24T08:38:02.813Z,1007.87
2017-01-24T08:39:13.167Z,1007.88
2017-01-24T08:40:23.916Z,1007.89
2017-01-24T08:41:34.261Z,1007.95
2017-01-24T08:42:44.999Z,1007.87
2017-01-24T08:43:55.732Z,1007.97
2017-01-24T08:45:06.478Z,1008.06
2017-01-24T08:46:16.440Z,1007.98
2017-01-24T08:47:27.187Z,1008.02
2017-01-24T08:48:37.924Z,1008.06
2017-01-24T08:49:48.654Z,1008.06
2017-01-24T08:50:59.394Z,1008.05
2017-01-24T08:52:10.129Z,1008.04
2017-01-24T08:53:20.081Z,1007.99
2017-01-24T08:54:30.436Z,1008.02
2017-01-24T08:55:41.169Z,1008.06
2017-01-24T08:56:51.926Z,1008.02
2017-01-24T08:58:02.323Z,1008.07
2017-01-24T08:59:13.055Z,1008.04
2017-01-24T09:00:23.795Z,1008.12
2017-01-24T09:01:34.547Z,1008.06
2017-01-24T09:02:45.319Z,1008.03
2017-01-24T09:03:56.077Z,1008.1
2017-01-24T09:05:05.233Z,1008.07
2017-01-24T09:06:15.969Z,1008.18
2017-01-24T09:07:26.711Z,1008.16
2017-01-24T09:08:37.498Z,1008.18
2017-01-24T09:09:48.238Z,1008.15
2017-01-24T09:10:58.572Z,1008.2
2017-01-24T09:12:09.319Z,1008.22
2017-01-24T09:13:20.075Z,1008.3
2017-01-24T09:14:30.813Z,1008.31
2017-01-24T09:15:41.553Z,1008.33
2017-01-24T09:16:52.291Z,1008.27
2017-01-24T09:18:03.031Z,1008.29
2017-01-24T09:19:13.813Z,1008.38
2017-01-24T09:20:24.558Z,1008.35
2017-01-24T09:21:35.400Z,1008.37
2017-01-24T09:22:46.149Z,1008.36
2017-01-24T09:23:56.902Z,1008.39
2017-01-24T09:25:07.659Z,1008.39
2017-01-24T09:26:18.429Z,1008.44
2017-01-24T09:27:28.777Z,1008.4
2017-01-24T09:28:38.730Z,1008.43
2017-01-24T09:29:49.096Z,1008.44
2017-01-24T09:30:59.846Z,1008.46
2017-01-24T09:32:10.584Z,1008.42
2017-01-24T09:33:21.334Z,1008.43
2017-01-24T09:34:31.677Z,1008.44
2017-01-24T09:35:42.413Z,1008.44
2017-01-24T09:36:52.760Z,1008.44
2017-01-24T09:38:03.507Z,1008.46
2017-01-24T09:39:14.233Z,1008.5
2017-01-24T09:40:24.969Z,1008.47
2017-01-24T09:41:34.907Z,1008.46
2017-01-24T09:42:45.654Z,1008.49
2017-01-24T09:43:56.395Z,1008.47
2017-01-24T09:45:06.739Z,1008.46
2017-01-24T09:46:17.468Z,1008.46
2017-01-24T09:47:27.415Z,1008.46
2017-01-24T09:48:38.146Z,1008.5
2017-01-24T09:49:48.889Z,1008.51
2017-01-24T09:50:59.638Z,1008.51
2017-01-24T09:52:10.402Z,1008.48
2017-01-24T09:53:21.139Z,1008.49
2017-01-24T09:54:31.876Z,1008.44
2017-01-24T09:55:42.635Z,1008.4
2017-01-24T09:56:53.445Z,1008.41
2017-01-24T09:58:04.189Z,1008.42
2017-01-24T09:59:14.974Z,1008.4
2017-01-24T10:00:25.715Z,1008.43
2017-01-24T10:01:36.460Z,1008.42
2017-01-24T10:02:47.233Z,1008.42
2017-01-24T10:03:57.976Z,1008.44
2017-01-24T10:05:08.736Z,1008.43
2017-01-24T10:06:19.470Z,1008.44
2017-01-24T10:07:29.820Z,1008.48
2017-01-24T10:08:40.152Z,1008.44
2017-01-24T10:09:50.504Z,1008.46
2017-01-24T10:11:00.861Z,1008.45
2017-01-24T10:12:11.629Z,1008.49
2017-01-24T10:13:22.426Z,1008.44
2017-01-24T10:14:33.171Z,1008.47
2017-01-24T10:15:43.921Z,1008.5
2017-01-24T10:16:54.716Z,1008.48
2017-01-24T10:18:05.454Z,1008.46
2017-01-24T10:19:15.815Z,1008.47
2017-01-24T10:20:26.190Z,1008.5
2017-01-24T10:21:36.952Z,1008.49
2017-01-24T10:22:47.317Z,1008.48
2017-01-24T10:23:58.090Z,1008.49
2017-01-24T10:25:08.459Z,1008.47
2017-01-24T10:26:18.814Z,1008.48
2017-01-24T10:27:29.166Z,1008.47
2017-01-24T10:28:39.521Z,1008.4
2017-01-24T10:29:49.882Z,1008.44
2017-01-24T10:31:00.251Z,1008.46
2017-01-24T10:32:10.998Z,1008.47
2017-01-24T10:33:21.764Z,1008.43
2017-01-24T10:34:32.506Z,1008.47
2017-01-24T10:35:43.262Z,1008.49
2017-01-24T10:36:54.005Z,1008.53
2017-01-24T10:38:04.748Z,1008.59
2017-01-24T10:39:15.502Z,1008.58
2017-01-24T10:40:26.263Z,1008.53
2017-01-24T10:41:37.023Z,1008.57
2017-01-24T10:42:47.773Z,1008.56
2017-01-24T10:43:58.519Z,1008.59
2017-01-24T10:45:09.292Z,1008.6
2017-01-24T10:46:20.061Z,1008.65
2017-01-24T10:47:30.811Z,1008.65
2017-01-24T10:48:41.563Z,1008.62
2017-01-24T10:49:52.317Z,1008.67
2017-01-24T10:51:02.678Z,1008.65
2017-01-24T10:52:13.441Z,1008.68
2017-01-24T10:53:24.198Z,1008.74
2017-01-24T10:54:34.939Z,1008.66
2017-01-24T10:55:45.694Z,1008.66
2017-01-24T10:56:56.451Z,1008.65
2017-01-24T10:58:07.201Z,1008.75
2017-01-24T10:59:17.943Z,1008.69
2017-01-24T11:00:27.513Z,1008.72
2017-01-24T11:01:38.278Z,1008.68
2017-01-24T11:02:49.034Z,1008.62
2017-01-24T11:03:59.811Z,1008.6
2017-01-24T11:05:10.804Z,1008.62
2017-01-24T11:06:21.167Z,1008.53
2017-01-24T11:07:31.916Z,1008.61
2017-01-24T11:08:42.675Z,1008.62
2017-01-24T11:09:53.052Z,1008.64
2017-01-24T11:11:03.795Z,1008.64
2017-01-24T11:12:13.746Z,1008.58
2017-01-24T11:13:23.706Z,1008.7
2017-01-24T11:14:34.460Z,1008.65
2017-01-24T11:15:44.836Z,1008.69
2017-01-24T11:16:55.231Z,1008.69
2017-01-24T11:18:05.213Z,1008.64
2017-01-24T11:19:15.995Z,1008.69
2017-01-24T11:20:26.808Z,1008.65
2017-01-24T11:21:37.598Z,1008.6
2017-01-24T11:22:48.388Z,1008.66
2017-01-24T11:23:59.268Z,1008.62
2017-01-24T11:25:11.086Z,1008.63
2017-01-24T11:26:23.079Z,1008.6
2017-01-24T11:27:34.399Z,1008.6
2017-01-24T11:28:45.230Z,1008.52
2017-01-24T11:29:56.430Z,1008.53
2017-01-24T11:31:06.932Z,1008.49
2017-01-24T11:32:17.765Z,1008.5
2017-01-24T11:33:29.687Z,1008.5
2017-01-24T11:34:39.908Z,1008.52
2017-01-24T11:35:50.342Z,1008.48
2017-01-24T11:37:01.586Z,1008.51
2017-01-24T11:38:12.867Z,1008.51
2017-01-24T11:39:23.656Z,1008.53
2017-01-24T11:40:34.020Z,1008.47
2017-01-24T11:41:44.768Z,1008.48
2017-01-24T11:42:55.526Z,1008.47
2017-01-24T11:44:06.288Z,1008.51
2017-01-24T11:45:17.043Z,1008.54
2017-01-24T11:46:27.835Z,1008.55
2017-01-24T11:47:38.588Z,1008.48
2017-01-24T11:48:48.576Z,1008.5
2017-01-24T11:49:59.365Z,1008.42
2017-01-24T11:51:09.748Z,1008.48
2017-01-24T11:52:20.489Z,1008.47
2017-01-24T11:53:31.230Z,1008.44
2017-01-24T11:54:41.990Z,1008.45
2017-01-24T11:55:52.750Z,1008.43
2017-01-24T11:57:03.517Z,1008.44
2017-01-24T11:58:14.269Z,1008.36
2017-01-24T11:59:24.640Z,1008.31
2017-01-24T12:00:34.993Z,1008.37
2017-01-24T12:01:45.340Z,1008.3
2017-01-24T12:02:56.096Z,1008.35
2017-01-24T12:04:06.452Z,1008.37
2017-01-24T12:05:17.209Z,1008.34
2017-01-24T12:06:27.576Z,1008.34
2017-01-24T12:07:37.566Z,1008.35
2017-01-24T12:08:48.307Z,1008.32
2017-01-24T12:09:59.062Z,1008.28
2017-01-24T12:11:09.813Z,1008.27
2017-01-24T12:12:20.169Z,1008.35
2017-01-24T12:13:30.544Z,1008.31
2017-01-24T12:14:41.313Z,1008.29
2017-01-24T12:15:51.674Z,1008.28
2017-01-24T12:17:02.466Z,1008.27
2017-01-24T12:18:12.843Z,1008.32
2017-01-24T12:19:23.614Z,1008.34
2017-01-24T12:20:34.389Z,1008.33
2017-01-24T12:21:44.768Z,1008.32
2017-01-24T12:22:55.172Z,1008.33
2017-01-24T12:24:05.567Z,1008.33
2017-01-24T12:25:16.352Z,1008.39
2017-01-24T12:26:27.167Z,1008.31
2017-01-24T12:27:37.557Z,1008.34
2017-01-24T12:28:48.345Z,1008.35
2017-01-24T12:29:58.734Z,1008.33
2017-01-24T12:31:09.122Z,1008.3
2017-01-24T12:32:19.933Z,1008.33
2017-01-24T12:33:29.919Z,1008.3
2017-01-24T12:34:39.913Z,1008.27
2017-01-24T12:35:50.698Z,1008.21
2017-01-24T12:37:00.680Z,1008.25
2017-01-24T12:38:11.472Z,1008.32
2017-01-24T12:39:22.299Z,1008.3
2017-01-24T12:40:32.659Z,1008.27
2017-01-24T12:41:43.452Z,1008.28
2017-01-24T12:42:54.252Z,1008.26
2017-01-24T12:44:05.144Z,1008.25
2017-01-24T12:45:15.591Z,1008.22
2017-01-24T12:46:26.476Z,1008.18
2017-01-24T12:47:37.290Z,1008.18
2017-01-24T12:48:48.106Z,1008.21
2017-01-24T12:49:58.949Z,1008.15
2017-01-24T12:51:09.759Z,1008.15
2017-01-24T12:52:20.205Z,1008.2
2017-01-24T12:53:30.942Z,1008.21
2017-01-24T12:54:41.316Z,1008.15
2017-01-24T12:55:51.673Z,1008.21
2017-01-24T12:57:02.414Z,1008.17
2017-01-24T12:58:12.749Z,1008.26
2017-01-24T12:59:23.492Z,1008.19
2017-01-24T13:00:34.232Z,1008.24
2017-01-24T13:01:44.575Z,1008.22
2017-01-24T13:02:54.912Z,1008.22
2017-01-24T13:04:05.667Z,1008.17
2017-01-24T13:05:16.412Z,1008.24
2017-01-24T13:06:26.374Z,1008.19
2017-01-24T13:07:36.715Z,1008.2
2017-01-24T13:08:47.061Z,1008.19
2017-01-24T13:09:57.801Z,1008.19
2017-01-24T13:11:07.357Z,1008.19
2017-01-24T13:12:17.701Z,1008.15
2017-01-24T13:13:27.645Z,1008.2
2017-01-24T13:14:37.587Z,1008.2
2017-01-24T13:15:47.542Z,1008.19
2017-01-24T13:16:57.873Z,1008.2
2017-01-24T13:18:08.601Z,1008.2
2017-01-24T13:19:18.966Z,1008.18
2017-01-24T13:20:29.728Z,1008.22
2017-01-24T13:21:40.474Z,1008.15
2017-01-24T13:22:50.823Z,1008.21
2017-01-24T13:24:01.164Z,1008.18
2017-01-24T13:25:10.736Z,1008.28
2017-01-24T13:26:21.479Z,1008.22
2017-01-24T13:27:32.466Z,1008.23
2017-01-24T13:28:43.215Z,1008.22
2017-01-24T13:29:53.968Z,1008.26
2017-01-24T13:31:04.745Z,1008.29
2017-01-24T13:32:15.100Z,1008.29
2017-01-24T13:33:25.836Z,1008.22
2017-01-24T13:34:36.583Z,1008.29
2017-01-24T13:35:47.327Z,1008.21
2017-01-24T13:36:57.681Z,1008.28
2017-01-24T13:38:08.433Z,1008.27
2017-01-24T13:39:18.783Z,1008.31
2017-01-24T13:40:29.521Z,1008.33
2017-01-24T13:41:39.912Z,1008.33
2017-01-24T13:42:49.920Z,1008.31
2017-01-24T13:44:00.280Z,1008.33
2017-01-24T13:45:10.658Z,1008.29
2017-01-24T13:46:21.004Z,1008.34
2017-01-24T13:47:31.348Z,1008.36
2017-01-24T13:48:41.308Z,1008.29
2017-01-24T13:49:51.299Z,1008.3
2017-01-24T13:51:01.666Z,1008.29
2017-01-24T13:52:11.621Z,1008.28
2017-01-24T13:53:21.955Z,1008.16
2017-01-24T13:54:32.710Z,1008.26
2017-01-24T13:55:43.081Z,1008.31
2017-01-24T13:56:52.678Z,1008.3
2017-01-24T13:58:03.436Z,1008.35
2017-01-24T13:59:12.981Z,1008.37
2017-01-24T14:00:23.723Z,1008.39
2017-01-24T14:01:34.076Z,1008.41
2017-01-24T14:02:44.821Z,1008.37
2017-01-24T14:03:55.209Z,1008.41
2017-01-24T14:05:05.552Z,1008.36
2017-01-24T14:06:15.896Z,1008.37
2017-01-24T14:07:25.877Z,1008.32
2017-01-24T14:08:36.623Z,1008.36
2017-01-24T14:09:47.369Z,1008.38
2017-01-24T14:10:57.733Z,1008.42
2017-01-24T14:12:08.482Z,1008.39
2017-01-24T14:13:19.253Z,1008.42
2017-01-24T14:14:30.019Z,1008.46
2017-01-24T14:15:40.844Z,1008.45
2017-01-24T14:16:51.603Z,1008.43
2017-01-24T14:18:01.951Z,1008.42
2017-01-24T14:19:12.705Z,1008.46
2017-01-24T14:20:23.071Z,1008.45
2017-01-24T14:21:33.443Z,1008.51
2017-01-24T14:22:43.832Z,1008.49
2017-01-24T14:23:54.206Z,1008.51
2017-01-24T14:25:04.970Z,1008.46
2017-01-24T14:26:15.725Z,1008.5
2017-01-24T14:27:26.472Z,1008.5
2017-01-24T14:28:37.241Z,1008.48
2017-01-24T14:29:47.977Z,1008.5
2017-01-24T14:30:58.335Z,1008.44
2017-01-24T14:32:09.089Z,1008.49
2017-01-24T14:33:19.466Z,1008.53
2017-01-24T14:34:29.812Z,1008.57
2017-01-24T14:35:40.191Z,1008.58
2017-01-24T14:36:50.931Z,1008.58
2017-01-24T14:38:01.289Z,1008.62
2017-01-24T14:39:12.057Z,1008.61
2017-01-24T14:40:22.815Z,1008.63
2017-01-24T14:41:33.198Z,1008.59
2017-01-24T14:42:43.970Z,1008.58
2017-01-24T14:43:54.721Z,1008.6
2017-01-24T14:45:05.087Z,1008.62
2017-01-24T14:46:15.850Z,1008.65